createdAt,value
2023-04-07T00:01:03.916Z,2.59
2023-04-07T00:03:52.417Z,2.34
2023-04-07T00:06:43.475Z,2.32
2023-04-07T00:09:31.785Z,2.11
2023-04-07T00:12:20.191Z,1.89
2023-04-07T00:15:09.584Z,2.01
2023-04-07T00:17:59.372Z,2.13
2023-04-07T00:20:47.844Z,2.20
2023-04-07T00:23:36.703Z,2.24
2023-04-07T00:26:27.186Z,2.29
2023-04-07T00:29:15.611Z,2.17
2023-04-07T00:32:04.029Z,1.64
2023-04-07T00:34:53.825Z,1.56
2023-04-07T00:37:42.899Z,1.73
2023-04-07T00:40:31.422Z,1.90
2023-04-07T00:43:19.898Z,1.93
2023-04-07T00:46:08.365Z,2.02
2023-04-07T00:48:56.778Z,1.94
2023-04-07T00:51:47.143Z,1.95
2023-04-07T00:54:35.782Z,1.94
2023-04-07T00:57:25.404Z,2.00
2023-04-07T01:00:14.487Z,1.98
2023-04-07T01:03:07.587Z,1.99
2023-04-07T01:06:01.326Z,1.92
2023-04-07T01:08:55.812Z,1.91
2023-04-07T01:11:48.381Z,1.89
2023-04-07T01:14:43.647Z,1.96
2023-04-07T01:18:01.510Z,1.95
2023-04-07T01:20:51.897Z,1.54
2023-04-07T01:23:53.734Z,1.47
2023-04-07T01:26:42.387Z,1.15
2023-04-07T01:29:40.529Z,1.20
2023-04-07T01:32:28.893Z,1.36
2023-04-07T01:35:17.908Z,1.51
2023-04-07T01:38:07.064Z,0.64
2023-04-07T01:40:55.682Z,0.82
2023-04-07T01:43:45.204Z,0.55
2023-04-07T01:46:36.075Z,0.73
2023-04-07T01:49:24.950Z,0.80
2023-04-07T01:52:13.705Z,0.75
2023-04-07T01:55:02.145Z,0.89
2023-04-07T01:57:51.917Z,0.78
2023-04-07T02:00:42.489Z,0.91
2023-04-07T02:03:41.717Z,0.86
2023-04-07T02:06:36.550Z,1.09
2023-04-07T02:09:25.475Z,1.15
2023-04-07T02:12:16.013Z,1.16
2023-04-07T02:15:14.688Z,1.08
2023-04-07T02:18:04.952Z,0.87
2023-04-07T02:20:55.195Z,0.68
2023-04-07T02:23:43.529Z,0.49
2023-04-07T02:26:36.115Z,0.65
2023-04-07T02:29:24.535Z,0.56
2023-04-07T02:32:12.827Z,0.60
2023-04-07T02:35:01.363Z,0.74
2023-04-07T02:37:51.374Z,0.89
2023-04-07T02:40:39.852Z,0.95
2023-04-07T02:43:28.237Z,0.86
2023-04-07T02:46:16.754Z,0.80
2023-04-07T02:49:05.167Z,0.85
2023-04-07T02:51:53.526Z,0.95
2023-04-07T02:54:43.303Z,1.05
2023-04-07T02:57:33.207Z,1.06
2023-04-07T03:00:24.927Z,1.10
2023-04-07T03:03:57.484Z,1.17
2023-04-07T03:06:47.243Z,1.25
2023-04-07T03:09:40.382Z,1.27
2023-04-07T03:12:30.200Z,1.35
2023-04-07T03:15:20.077Z,1.38
2023-04-07T03:18:12.389Z,1.38
2023-04-07T03:21:03.038Z,1.37
2023-04-07T03:23:52.814Z,1.34
2023-04-07T03:26:41.572Z,1.23
2023-04-07T03:29:41.425Z,1.25
2023-04-07T03:32:32.948Z,1.24
2023-04-07T03:35:21.421Z,1.14
2023-04-07T03:38:09.861Z,1.22
2023-04-07T03:40:58.408Z,1.28
2023-04-07T03:43:46.855Z,1.38
2023-04-07T03:46:37.354Z,1.35
2023-04-07T03:49:25.948Z,1.36
2023-04-07T03:52:15.674Z,1.29
2023-04-07T03:55:08.204Z,1.25
2023-04-07T03:57:56.619Z,0.98
2023-04-07T04:00:47.107Z,0.85
2023-04-07T04:03:38.212Z,0.71
2023-04-07T04:06:39.618Z,0.57
2023-04-07T04:09:48.267Z,0.73
2023-04-07T04:12:36.872Z,0.89
2023-04-07T04:15:30.166Z,0.78
2023-04-07T04:18:19.759Z,0.62
2023-04-07T04:21:10.393Z,0.49
2023-04-07T04:24:02.263Z,0.41
2023-04-07T04:26:51.853Z,0.35
2023-04-07T04:29:40.986Z,0.33
2023-04-07T04:32:32.940Z,0.28
2023-04-07T04:35:21.958Z,0.24
2023-04-07T04:38:25.030Z,0.02
2023-04-07T04:41:24.611Z,-0.10
2023-04-07T04:44:13.771Z,0.06
2023-04-07T04:47:03.785Z,0.07
2023-04-07T04:49:53.255Z,0.14
2023-04-07T04:52:42.257Z,0.14
2023-04-07T04:55:40.864Z,0.00
2023-04-07T04:58:29.764Z,0.04
2023-04-07T05:01:19.046Z,0.03
2023-04-07T05:04:15.061Z,-0.07
2023-04-07T05:07:09.383Z,0.04
2023-04-07T05:09:57.838Z,0.10
2023-04-07T05:12:47.741Z,0.00
2023-04-07T05:15:36.306Z,0.08
2023-04-07T05:18:27.148Z,0.10
2023-04-07T05:21:15.847Z,0.26
2023-04-07T05:24:04.489Z,0.30
2023-04-07T05:26:55.217Z,0.42
2023-04-07T05:29:44.975Z,0.38
2023-04-07T05:32:42.625Z,0.44
2023-04-07T05:35:40.780Z,0.49
2023-04-07T05:38:29.293Z,0.59
2023-04-07T05:41:21.638Z,0.75
2023-04-07T05:44:12.466Z,0.95
2023-04-07T05:47:05.910Z,0.98
2023-04-07T05:49:54.818Z,1.08
2023-04-07T05:52:43.316Z,1.25
2023-04-07T05:55:43.499Z,1.37
2023-04-07T05:58:35.619Z,1.51
2023-04-07T06:01:26.329Z,1.70
2023-04-07T06:04:18.104Z,1.82
2023-04-07T06:07:09.419Z,1.97
2023-04-07T06:09:58.083Z,2.12
2023-04-07T06:12:47.604Z,2.24
2023-04-07T06:15:36.284Z,2.37
2023-04-07T06:18:24.952Z,2.48
2023-04-07T06:21:14.948Z,2.54
2023-04-07T06:24:03.386Z,2.66
2023-04-07T06:26:51.935Z,2.78
2023-04-07T06:29:42.752Z,2.96
2023-04-07T06:32:31.744Z,3.11
2023-04-07T06:35:20.377Z,3.28
2023-04-07T06:38:11.551Z,3.42
2023-04-07T06:40:59.966Z,3.51
2023-04-07T06:43:51.312Z,3.63
2023-04-07T06:46:40.008Z,3.74
2023-04-07T06:49:28.451Z,3.77
2023-04-07T06:52:16.858Z,3.90
2023-04-07T06:55:07.827Z,3.95
2023-04-07T06:57:56.421Z,4.00
2023-04-07T07:00:47.157Z,4.07
2023-04-07T07:03:35.923Z,4.18
2023-04-07T07:06:24.371Z,4.28
2023-04-07T07:09:12.735Z,4.37
2023-04-07T07:12:04.316Z,4.47
2023-04-07T07:14:52.817Z,4.53
2023-04-07T07:17:41.518Z,4.68
2023-04-07T07:20:30.501Z,4.82
2023-04-07T07:23:18.950Z,4.96
2023-04-07T07:26:07.387Z,4.99
2023-04-07T07:28:57.140Z,5.13
2023-04-07T07:31:45.529Z,5.19
2023-04-07T07:34:34.312Z,5.25
2023-04-07T07:37:22.687Z,5.38
2023-04-07T07:40:11.490Z,5.47
2023-04-07T07:42:59.897Z,5.57
2023-04-07T07:45:49.700Z,5.69
2023-04-07T07:48:38.090Z,5.80
2023-04-07T07:51:28.039Z,5.88
2023-04-07T07:54:16.403Z,5.98
2023-04-07T07:57:06.173Z,6.05
2023-04-07T07:59:54.659Z,6.14
2023-04-07T08:02:44.507Z,6.10
2023-04-07T08:05:33.066Z,6.28
2023-04-07T08:08:21.435Z,6.36
2023-04-07T08:11:09.822Z,6.49
2023-04-07T08:13:58.197Z,6.68
2023-04-07T08:16:47.032Z,6.81
2023-04-07T08:19:36.853Z,6.95
2023-04-07T08:22:25.314Z,7.02
2023-04-07T08:25:13.702Z,7.04
2023-04-07T08:28:02.055Z,7.10
2023-04-07T08:30:50.500Z,7.19
2023-04-07T08:33:38.935Z,7.21
2023-04-07T08:36:30.229Z,7.21
2023-04-07T08:39:19.598Z,7.26
2023-04-07T08:42:08.845Z,7.22
2023-04-07T08:45:00.205Z,7.48
2023-04-07T08:47:50.981Z,7.59
2023-04-07T08:50:39.825Z,7.52
2023-04-07T08:53:36.975Z,7.62
2023-04-07T08:56:25.999Z,7.80
2023-04-07T08:59:15.737Z,7.91
2023-04-07T09:02:06.254Z,8.08
2023-04-07T09:04:54.692Z,8.17
2023-04-07T09:07:44.172Z,8.25
2023-04-07T09:10:33.919Z,8.40
2023-04-07T09:13:22.367Z,8.48
2023-04-07T09:16:10.783Z,8.38
2023-04-07T09:18:59.347Z,8.59
2023-04-07T09:21:52.405Z,8.58
2023-04-07T09:24:41.663Z,8.63
2023-04-07T09:27:31.446Z,8.76
2023-04-07T09:30:20.164Z,8.94
2023-04-07T09:33:08.635Z,8.94
2023-04-07T09:35:57.701Z,8.77
2023-04-07T09:38:46.715Z,8.99
2023-04-07T09:41:35.133Z,9.17
2023-04-07T09:44:25.545Z,9.20
2023-04-07T09:47:14.010Z,9.31
2023-04-07T09:50:07.013Z,9.20
2023-04-07T09:52:55.639Z,9.36
2023-04-07T09:55:46.946Z,9.49
2023-04-07T09:58:35.440Z,9.57
2023-04-07T10:01:25.445Z,9.67
2023-04-07T10:04:14.130Z,9.87
2023-04-07T10:07:03.680Z,9.91
2023-04-07T10:09:52.106Z,10.04
2023-04-07T10:12:41.555Z,9.94
2023-04-07T10:15:30.438Z,10.16
2023-04-07T10:18:22.005Z,10.27
2023-04-07T10:21:15.300Z,10.19
2023-04-07T10:24:09.659Z,10.09
2023-04-07T10:27:02.479Z,10.10
2023-04-07T10:29:52.642Z,10.18
2023-04-07T10:32:47.694Z,10.29
2023-04-07T10:36:08.313Z,10.55
2023-04-07T10:39:22.015Z,10.44
2023-04-07T10:42:46.451Z,10.12
2023-04-07T10:45:59.652Z,10.54
2023-04-07T10:49:09.837Z,10.63
2023-04-07T10:52:25.095Z,10.74
2023-04-07T10:55:36.230Z,10.88
2023-04-07T10:58:25.283Z,11.04
2023-04-07T11:01:21.804Z,11.23
2023-04-07T11:04:10.245Z,11.37
2023-04-07T11:06:59.716Z,11.60
2023-04-07T11:09:49.430Z,11.59
2023-04-07T11:12:37.831Z,11.39
2023-04-07T11:15:26.401Z,11.41
2023-04-07T11:18:19.155Z,11.26
2023-04-07T11:21:08.502Z,11.53
2023-04-07T11:23:56.906Z,11.74
2023-04-07T11:26:47.963Z,11.81
2023-04-07T11:29:38.463Z,11.84
2023-04-07T11:32:29.766Z,11.96
2023-04-07T11:35:18.477Z,11.92
2023-04-07T11:38:09.086Z,11.91
2023-04-07T11:40:58.140Z,12.17
2023-04-07T11:43:48.107Z,12.01
2023-04-07T11:46:37.317Z,12.07
2023-04-07T11:49:28.002Z,11.95
2023-04-07T11:52:16.677Z,12.22
2023-04-07T11:55:06.012Z,12.31
2023-04-07T11:57:54.497Z,12.39
2023-04-07T12:00:56.064Z,11.79
2023-04-07T12:03:57.262Z,11.92
2023-04-07T12:06:46.902Z,12.00
2023-04-07T12:09:37.512Z,12.00
2023-04-07T12:12:29.485Z,12.28
2023-04-07T12:15:17.919Z,12.40
2023-04-07T12:18:07.674Z,12.20
2023-04-07T12:20:56.524Z,12.20
2023-04-07T12:23:44.943Z,11.99
2023-04-07T12:26:33.353Z,12.07
2023-04-07T12:29:21.769Z,11.94
2023-04-07T12:32:10.370Z,12.05
2023-04-07T12:35:00.170Z,12.15
2023-04-07T12:37:49.997Z,12.26
2023-04-07T12:40:38.742Z,12.25
2023-04-07T12:43:27.153Z,12.31
2023-04-07T12:46:15.546Z,12.22
2023-04-07T12:49:04.075Z,11.98
2023-04-07T12:51:53.824Z,12.11
2023-04-07T12:54:42.980Z,12.22
2023-04-07T12:57:31.423Z,12.40
2023-04-07T13:00:19.813Z,12.75
2023-04-07T13:03:08.508Z,12.92
2023-04-07T13:06:01.172Z,12.90
2023-04-07T13:08:52.183Z,13.09
2023-04-07T13:11:40.782Z,12.99
2023-04-07T13:14:29.158Z,13.09
2023-04-07T13:17:18.759Z,13.15
2023-04-07T13:20:08.496Z,12.98
2023-04-07T13:23:07.477Z,12.97
2023-04-07T13:25:57.960Z,13.29
2023-04-07T13:28:47.929Z,12.85
2023-04-07T13:31:36.374Z,12.34
2023-04-07T13:34:24.789Z,12.70
2023-04-07T13:37:14.213Z,12.89
2023-04-07T13:40:02.807Z,12.94
2023-04-07T13:42:52.613Z,12.82
2023-04-07T13:45:41.325Z,12.98
2023-04-07T13:48:29.775Z,13.05
2023-04-07T13:51:18.256Z,12.78
2023-04-07T13:54:06.883Z,12.80
2023-04-07T13:56:55.297Z,12.86
2023-04-07T13:59:45.051Z,12.59
2023-04-07T14:02:34.325Z,12.59
2023-04-07T14:05:22.945Z,12.76
2023-04-07T14:08:11.252Z,12.62
2023-04-07T14:10:59.607Z,12.68
2023-04-07T14:13:48.179Z,12.60
2023-04-07T14:16:37.956Z,12.48
2023-04-07T14:19:26.384Z,12.33
2023-04-07T14:22:15.437Z,12.15
2023-04-07T14:25:04.731Z,12.03
2023-04-07T14:27:53.363Z,11.95
2023-04-07T14:30:41.710Z,12.12
2023-04-07T14:33:31.416Z,12.16
2023-04-07T14:36:19.796Z,12.02
2023-04-07T14:39:08.955Z,11.86
2023-04-07T14:41:57.338Z,11.95
2023-04-07T14:44:45.743Z,12.10
2023-04-07T14:47:34.193Z,12.21
2023-04-07T14:50:24.687Z,12.27
2023-04-07T14:53:13.120Z,12.36
2023-04-07T14:56:05.372Z,12.20
2023-04-07T14:58:53.741Z,12.18
2023-04-07T15:01:42.212Z,12.20
2023-04-07T15:04:32.095Z,12.20
2023-04-07T15:07:21.906Z,12.16
2023-04-07T15:10:11.097Z,12.12
2023-04-07T15:12:59.447Z,12.18
2023-04-07T15:15:47.845Z,12.19
2023-04-07T15:18:36.240Z,12.06
2023-04-07T15:21:24.628Z,11.86
2023-04-07T15:24:16.071Z,11.94
2023-04-07T15:27:04.924Z,11.90
2023-04-07T15:29:53.446Z,11.81
2023-04-07T15:32:41.876Z,11.84
2023-04-07T15:35:30.325Z,11.67
2023-04-07T15:38:18.735Z,11.85
2023-04-07T15:41:08.499Z,11.92
2023-04-07T15:43:57.584Z,12.00
2023-04-07T15:46:46.066Z,12.01
2023-04-07T15:49:34.591Z,12.00
2023-04-07T15:52:22.999Z,11.64
2023-04-07T15:55:11.804Z,11.35
2023-04-07T15:58:01.850Z,11.50
2023-04-07T16:00:50.336Z,11.53
2023-04-07T16:03:38.819Z,11.71
2023-04-07T16:06:27.417Z,11.70
2023-04-07T16:09:15.763Z,11.37
2023-04-07T16:12:04.165Z,11.39
2023-04-07T16:14:56.425Z,11.54
2023-04-07T16:17:48.409Z,11.50
2023-04-07T16:20:36.942Z,11.43
2023-04-07T16:23:25.454Z,11.36
2023-04-07T16:26:13.856Z,11.43
2023-04-07T16:29:02.217Z,11.24
2023-04-07T16:31:52.105Z,11.28
2023-04-07T16:34:40.507Z,11.36
2023-04-07T16:37:30.293Z,11.44
2023-04-07T16:40:18.626Z,11.41
2023-04-07T16:43:09.026Z,11.46
2023-04-07T16:46:00.022Z,11.50
2023-04-07T16:48:50.390Z,11.44
2023-04-07T16:51:38.758Z,11.47
2023-04-07T16:54:27.125Z,11.48
2023-04-07T16:57:15.812Z,11.39
2023-04-07T17:00:05.836Z,11.35
2023-04-07T17:02:54.290Z,11.38
2023-04-07T17:05:47.156Z,11.38
2023-04-07T17:08:36.473Z,11.40
2023-04-07T17:11:24.839Z,11.40
2023-04-07T17:14:13.193Z,11.34
2023-04-07T17:17:02.174Z,11.24
2023-04-07T17:19:50.642Z,11.07
2023-04-07T17:22:40.401Z,11.03
2023-04-07T17:25:28.789Z,11.01
2023-04-07T17:28:17.209Z,10.82
2023-04-07T17:31:05.758Z,10.84
2023-04-07T17:33:54.166Z,10.62
2023-04-07T17:36:42.918Z,10.76
2023-04-07T17:39:32.679Z,10.69
2023-04-07T17:42:21.022Z,10.77
2023-04-07T17:45:10.828Z,10.79
2023-04-07T17:48:00.991Z,10.80
2023-04-07T17:50:49.697Z,10.77
2023-04-07T17:53:38.022Z,10.75
2023-04-07T17:56:27.884Z,10.71
2023-04-07T17:59:16.234Z,10.68
2023-04-07T18:02:09.177Z,10.62
2023-04-07T18:05:01.153Z,10.56
2023-04-07T18:07:49.630Z,10.50
2023-04-07T18:10:38.157Z,10.40
2023-04-07T18:13:27.933Z,10.32
2023-04-07T18:16:21.899Z,10.21
2023-04-07T18:19:10.765Z,10.15
2023-04-07T18:22:00.103Z,10.07
2023-04-07T18:24:48.901Z,9.94
2023-04-07T18:27:37.835Z,9.81
2023-04-07T18:30:27.606Z,9.67
2023-04-07T18:33:15.933Z,9.46
2023-04-07T18:36:07.862Z,9.44
2023-04-07T18:38:57.682Z,9.42
2023-04-07T18:41:47.405Z,9.38
2023-04-07T18:44:35.903Z,9.34
2023-04-07T18:47:27.393Z,9.26
2023-04-07T18:50:15.957Z,9.18
2023-04-07T18:53:04.377Z,9.11
2023-04-07T18:55:53.057Z,9.01
2023-04-07T18:58:44.893Z,8.82
2023-04-07T19:01:33.380Z,8.73
2023-04-07T19:04:24.882Z,8.57
2023-04-07T19:07:13.310Z,8.41
2023-04-07T19:10:01.631Z,8.29
2023-04-07T19:12:49.997Z,8.31
2023-04-07T19:15:39.440Z,8.30
2023-04-07T19:18:29.268Z,8.28
2023-04-07T19:21:19.695Z,8.25
2023-04-07T19:24:08.125Z,8.05
2023-04-07T19:26:57.851Z,7.92
2023-04-07T19:29:46.223Z,7.60
2023-04-07T19:32:34.674Z,7.54
2023-04-07T19:35:23.082Z,7.47
2023-04-07T19:38:12.861Z,7.38
2023-04-07T19:41:01.479Z,7.42
2023-04-07T19:43:50.034Z,7.43
2023-04-07T19:46:38.450Z,7.31
2023-04-07T19:49:26.777Z,7.12
2023-04-07T19:52:15.574Z,7.16
2023-04-07T19:55:07.900Z,7.12
2023-04-07T19:57:57.265Z,6.94
2023-04-07T20:00:48.496Z,6.55
2023-04-07T20:03:39.584Z,6.67
2023-04-07T20:06:28.193Z,6.78
2023-04-07T20:09:16.557Z,6.85
2023-04-07T20:12:06.287Z,6.88
2023-04-07T20:14:54.686Z,6.88
2023-04-07T20:17:43.065Z,6.91
2023-04-07T20:20:31.448Z,6.90
2023-04-07T20:23:22.594Z,6.83
2023-04-07T20:26:10.979Z,6.83
2023-04-07T20:29:00.717Z,6.80
2023-04-07T20:31:49.093Z,6.69
2023-04-07T20:34:37.404Z,6.63
2023-04-07T20:37:27.848Z,6.61
2023-04-07T20:40:16.214Z,6.55
2023-04-07T20:43:04.763Z,6.52
2023-04-07T20:45:54.717Z,6.48
2023-04-07T20:48:43.179Z,6.41
2023-04-07T20:51:31.517Z,6.38
2023-04-07T20:54:19.866Z,6.36
2023-04-07T20:57:08.186Z,6.31
2023-04-07T20:59:56.520Z,6.31
2023-04-07T21:02:46.948Z,6.28
2023-04-07T21:05:35.549Z,6.00
2023-04-07T21:08:25.436Z,5.94
2023-04-07T21:11:13.753Z,5.79
2023-04-07T21:14:02.122Z,5.63
2023-04-07T21:16:50.496Z,5.64
2023-04-07T21:19:40.969Z,5.68
2023-04-07T21:22:29.616Z,5.73
2023-04-07T21:25:18.107Z,5.74
2023-04-07T21:28:07.344Z,5.72
2023-04-07T21:30:56.804Z,5.70
2023-04-07T21:33:46.508Z,5.70
2023-04-07T21:36:36.158Z,5.67
2023-04-07T21:39:24.550Z,5.61
2023-04-07T21:42:12.866Z,5.48
2023-04-07T21:45:01.186Z,5.26
2023-04-07T21:47:49.731Z,5.27
2023-04-07T21:50:38.154Z,5.24
2023-04-07T21:53:27.878Z,5.20
2023-04-07T21:56:16.422Z,5.17
2023-04-07T21:59:04.860Z,5.18
2023-04-07T22:01:53.419Z,5.11
2023-04-07T22:04:41.997Z,4.93
2023-04-07T22:07:30.666Z,4.68
2023-04-07T22:10:20.513Z,4.71
2023-04-07T22:13:08.950Z,4.75
2023-04-07T22:15:57.475Z,4.78
2023-04-07T22:18:45.929Z,4.79
2023-04-07T22:21:35.995Z,4.74
2023-04-07T22:24:24.448Z,4.69
2023-04-07T22:27:14.645Z,4.34
2023-04-07T22:30:03.757Z,4.60
2023-04-07T22:32:52.254Z,4.68
2023-04-07T22:35:40.812Z,4.65
2023-04-07T22:38:29.220Z,4.14
2023-04-07T22:41:17.603Z,4.20
2023-04-07T22:44:07.397Z,4.14
2023-04-07T22:46:56.245Z,4.16
2023-04-07T22:49:45.579Z,4.08
2023-04-07T22:52:33.929Z,3.99
2023-04-07T22:55:22.285Z,3.93
2023-04-07T22:58:10.644Z,3.88
2023-04-07T23:01:00.575Z,3.78
2023-04-07T23:03:49.020Z,3.87
2023-04-07T23:06:37.399Z,3.92
2023-04-07T23:09:25.782Z,4.03
2023-04-07T23:12:14.112Z,4.08
2023-04-07T23:15:02.630Z,3.85
2023-04-07T23:17:52.614Z,3.60
2023-04-07T23:20:41.092Z,3.57
2023-04-07T23:23:29.465Z,3.36
2023-04-07T23:26:17.787Z,3.46
2023-04-07T23:29:06.184Z,3.58
2023-04-07T23:31:54.594Z,3.71
2023-04-07T23:34:44.342Z,3.79
2023-04-07T23:37:32.708Z,3.65
2023-04-07T23:40:21.329Z,3.34
2023-04-07T23:43:09.665Z,3.39
2023-04-07T23:45:58.005Z,3.54
2023-04-07T23:48:46.360Z,3.67
2023-04-07T23:51:36.570Z,3.77
2023-04-07T23:54:24.943Z,3.80
2023-04-07T23:57:13.272Z,3.42
